Time;durP1;ratioP1;P1;durP2;ratioP2;P2;SDS_P1;SDS_P2;PMS_P1;PMS_P2;Temp;Humidity;BMP_temperature;BMP_pressure;BME280_temperature;BME280_humidity;BME280_pressure;Samples;Min_cycle;Max_cycle;Signal;HPM_P1;HPM_P2
2023/06/12 00:01:07;;;;;;;;;;;24.40;45.10;;;;;;1545703;75;733;-61
2023/06/12 00:03:09;;;;;;;;;;;24.40;44.80;;;;;;1532063;75;787;-63
2023/06/12 00:05:11;;;;;;;;;;;24.40;44.90;;;;;;1544827;75;1561;-61
2023/06/12 00:07:13;;;;;;;;;;;24.40;44.80;;;;;;1555620;75;750;-61
2023/06/12 00:09:15;;;;;;;;;;;24.40;44.80;;;;;;1544201;75;796;-61
2023/06/12 00:11:17;;;;;;;;;;;24.40;44.90;;;;;;1553653;75;716;-61
2023/06/12 00:13:19;;;;;;;;;;;24.40;44.70;;;;;;1556061;75;1916;-60
2023/06/12 00:15:21;;;;;;;;;;;24.40;44.60;;;;;;1554175;75;828;-61
2023/06/12 00:17:22;;;;;;;;;;;24.40;44.60;;;;;;1550981;75;1162;-60
2023/06/12 00:19:27;;;;;;;;;;;24.40;44.50;;;;;;1553487;75;1603;-62
2023/06/12 00:21:28;;;;;;;;;;;24.40;44.40;;;;;;1535115;75;1729;-61
2023/06/12 00:23:30;;;;;;;;;;;24.40;44.70;;;;;;1533967;75;703;-62
2023/06/12 00:25:32;;;;;;;;;;;24.40;44.40;;;;;;1548321;75;706;-61
2023/06/12 00:27:34;;;;;;;;;;;24.40;44.70;;;;;;1553201;75;1160;-62
2023/06/12 00:29:36;;;;;;;;;;;24.40;44.60;;;;;;1544412;75;771;-61
2023/06/12 00:31:38;;;;;;;;;;;24.30;44.70;;;;;;1557989;75;791;-61
2023/06/12 00:33:41;;;;;;;;;;;24.40;44.50;;;;;;1549986;75;1932;-62
2023/06/12 00:35:43;;;;;;;;;;;24.40;44.50;;;;;;1540096;75;1032;-60
2023/06/12 00:37:46;;;;;;;;;;;24.40;44.60;;;;;;1547717;75;1193;-60
2023/06/12 00:39:48;;;;;;;;;;;24.40;44.50;;;;;;1543255;75;1136;-62
2023/06/12 00:41:50;;;;;;;;;;;24.30;44.80;;;;;;1545671;75;691;-61
2023/06/12 00:43:52;;;;;;;;;;;24.40;44.90;;;;;;1543453;75;730;-61
2023/06/12 00:45:54;;;;;;;;;;;24.40;44.70;;;;;;1531445;75;814;-62
2023/06/12 00:47:57;;;;;;;;;;;24.40;44.50;;;;;;1549511;75;1555;-61
2023/06/12 00:49:59;;;;;;;;;;;24.40;44.50;;;;;;1551480;75;729;-61
2023/06/12 00:52:01;;;;;;;;;;;24.40;44.70;;;;;;1541671;75;739;-61
2023/06/12 00:54:03;;;;;;;;;;;24.40;44.40;;;;;;1550842;75;2043;-60
2023/06/12 00:56:05;;;;;;;;;;;24.30;44.50;;;;;;1542605;75;772;-62
2023/06/12 00:58:07;;;;;;;;;;;24.30;44.40;;;;;;1550089;75;1141;-61
2023/06/12 01:00:11;;;;;;;;;;;24.40;44.40;;;;;;1556988;75;704;-61
2023/06/12 01:02:13;;;;;;;;;;;24.40;44.60;;;;;;1551641;75;1425;-60
2023/06/12 01:04:16;;;;;;;;;;;24.40;44.70;;;;;;1539081;75;725;-61
2023/06/12 01:06:20;;;;;;;;;;;24.40;44.70;;;;;;1534855;75;841;-59
2023/06/12 01:08:40;;;;;;;;;;;24.30;44.90;;;;;;1535851;75;1161;-61
2023/06/12 01:10:43;;;;;;;;;;;24.30;45.00;;;;;;1548013;75;800;-61
2023/06/12 01:12:45;;;;;;;;;;;24.30;44.90;;;;;;1547292;75;1958;-61
2023/06/12 01:14:47;;;;;;;;;;;24.30;44.80;;;;;;1549498;75;1932;-60
2023/06/12 01:16:49;;;;;;;;;;;24.30;44.70;;;;;;1550272;75;684;-61
2023/06/12 01:18:52;;;;;;;;;;;24.40;44.70;;;;;;1547126;75;1145;-62
2023/06/12 01:20:55;;;;;;;;;;;24.30;44.80;;;;;;1540936;75;708;-61
2023/06/12 01:23:02;;;;;;;;;;;24.30;44.80;;;;;;1538705;75;929;-61
2023/06/12 01:25:12;;;;;;;;;;;24.30;44.80;;;;;;1552698;75;1844;-61
2023/06/12 01:27:18;;;;;;;;;;;24.30;44.80;;;;;;1547050;75;1127;-60
2023/06/12 01:29:38;;;;;;;;;;;24.30;45.00;;;;;;1537434;75;1713;-61
2023/06/12 01:31:59;;;;;;;;;;;24.30;45.00;;;;;;1537343;75;725;-62
2023/06/12 01:34:08;;;;;;;;;;;24.40;44.90;;;;;;1552487;74;1921;-61
2023/06/12 01:36:11;;;;;;;;;;;24.30;44.90;;;;;;1552279;75;1096;-62
2023/06/12 01:38:20;;;;;;;;;;;24.40;44.80;;;;;;1562215;75;1182;-60
2023/06/12 01:40:23;;;;;;;;;;;24.30;45.00;;;;;;1549073;75;746;-61
2023/06/12 01:42:26;;;;;;;;;;;24.30;44.90;;;;;;1563417;75;748;-61
2023/06/12 01:44:28;;;;;;;;;;;24.30;45.20;;;;;;1563758;75;1669;-60
2023/06/12 01:46:29;;;;;;;;;;;24.30;45.20;;;;;;1548375;75;745;-60
2023/06/12 01:48:31;;;;;;;;;;;24.40;45.20;;;;;;1548895;75;1183;-61
2023/06/12 01:50:33;;;;;;;;;;;24.40;45.00;;;;;;1537663;75;767;-60
2023/06/12 01:52:35;;;;;;;;;;;24.40;45.10;;;;;;1540378;75;679;-60
2023/06/12 01:54:37;;;;;;;;;;;24.40;45.00;;;;;;1543514;75;1934;-60
2023/06/12 01:56:39;;;;;;;;;;;24.30;44.80;;;;;;1545282;75;605;-60
2023/06/12 01:58:41;;;;;;;;;;;24.40;44.90;;;;;;1545984;75;1530;-60
2023/06/12 02:00:43;;;;;;;;;;;24.40;44.80;;;;;;1564006;75;749;-60
2023/06/12 02:02:45;;;;;;;;;;;24.40;44.60;;;;;;1531642;75;711;-61
2023/06/12 02:04:47;;;;;;;;;;;24.40;44.70;;;;;;1553161;75;819;-60
2023/06/12 02:06:49;;;;;;;;;;;24.40;45.00;;;;;;1546089;75;733;-60
2023/06/12 02:08:52;;;;;;;;;;;24.40;44.70;;;;;;1556718;75;1115;-59
2023/06/12 02:10:53;;;;;;;;;;;24.30;44.80;;;;;;1542953;75;1425;-59
2023/06/12 02:12:55;;;;;;;;;;;24.30;44.70;;;;;;1537339;75;727;-60
2023/06/12 02:14:58;;;;;;;;;;;24.40;44.90;;;;;;1550236;75;1946;-60
2023/06/12 02:17:02;;;;;;;;;;;24.30;44.80;;;;;;1543604;75;805;-59
2023/06/12 02:19:04;;;;;;;;;;;24.30;44.80;;;;;;1556909;75;1171;-59
2023/06/12 02:21:06;;;;;;;;;;;24.30;45.00;;;;;;1553939;75;749;-60
2023/06/12 02:23:08;;;;;;;;;;;24.30;45.00;;;;;;1549972;75;728;-60
2023/06/12 02:25:10;;;;;;;;;;;24.30;45.00;;;;;;1543245;75;1316;-60
2023/06/12 02:27:12;;;;;;;;;;;24.30;45.10;;;;;;1541588;75;711;-60
2023/06/12 02:29:14;;;;;;;;;;;24.40;45.00;;;;;;1544383;75;653;-60
2023/06/12 02:31:16;;;;;;;;;;;24.30;44.90;;;;;;1547650;75;711;-59
2023/06/12 02:33:17;;;;;;;;;;;24.30;45.00;;;;;;1548780;75;668;-60
2023/06/12 02:35:19;;;;;;;;;;;24.30;44.90;;;;;;1554949;75;1935;-60
2023/06/12 02:37:22;;;;;;;;;;;24.30;44.90;;;;;;1534598;75;1192;-59
2023/06/12 02:39:24;;;;;;;;;;;24.30;44.90;;;;;;1545365;75;1225;-60
2023/06/12 02:41:26;;;;;;;;;;;24.30;44.90;;;;;;1545782;75;836;-60
2023/06/12 02:43:28;;;;;;;;;;;24.40;44.90;;;;;;1566267;75;776;-60
2023/06/12 02:45:30;;;;;;;;;;;24.40;44.90;;;;;;1541335;75;759;-61
2023/06/12 02:47:32;;;;;;;;;;;24.40;44.90;;;;;;1556326;75;1153;-60
2023/06/12 02:49:35;;;;;;;;;;;24.30;44.80;;;;;;1552965;75;761;-60
2023/06/12 02:51:37;;;;;;;;;;;24.30;44.80;;;;;;1547599;75;695;-60
2023/06/12 02:53:39;;;;;;;;;;;24.30;44.80;;;;;;1554221;75;1951;-60
2023/06/12 02:55:44;;;;;;;;;;;24.30;44.80;;;;;;1547403;75;772;-61
2023/06/12 02:57:44;;;;;;;;;;;24.30;44.70;;;;;;1552999;74;1665;-60
2023/06/12 02:59:46;;;;;;;;;;;24.30;44.80;;;;;;1534209;75;676;-60
2023/06/12 03:01:48;;;;;;;;;;;24.40;44.70;;;;;;1557792;75;616;-59
2023/06/12 03:03:50;;;;;;;;;;;24.30;45.00;;;;;;1543619;75;691;-60
2023/06/12 03:05:52;;;;;;;;;;;24.30;45.00;;;;;;1538320;75;717;-60
2023/06/12 03:07:54;;;;;;;;;;;24.30;44.80;;;;;;1541358;75;1530;-60
2023/06/12 03:09:56;;;;;;;;;;;24.30;44.90;;;;;;1540826;75;757;-59
2023/06/12 03:11:58;;;;;;;;;;;24.30;44.90;;;;;;1532362;75;717;-60
2023/06/12 03:14:00;;;;;;;;;;;24.30;44.70;;;;;;1541096;75;1917;-60
2023/06/12 03:16:02;;;;;;;;;;;24.30;44.80;;;;;;1541107;75;743;-61
2023/06/12 03:18:04;;;;;;;;;;;24.30;44.90;;;;;;1548074;75;1177;-61
2023/06/12 03:20:06;;;;;;;;;;;24.30;44.90;;;;;;1537456;75;679;-60
2023/06/12 03:22:08;;;;;;;;;;;24.30;44.90;;;;;;1562260;75;1488;-60
2023/06/12 03:24:10;;;;;;;;;;;24.20;44.70;;;;;;1556135;75;718;-60
2023/06/12 03:26:12;;;;;;;;;;;24.20;44.70;;;;;;1558808;75;808;-61
2023/06/12 03:28:14;;;;;;;;;;;24.20;44.60;;;;;;1548623;75;1151;-60
2023/06/12 03:30:16;;;;;;;;;;;24.20;44.70;;;;;;1548837;75;692;-61
2023/06/12 03:32:17;;;;;;;;;;;24.20;44.70;;;;;;1540051;75;742;-60
2023/06/12 03:34:20;;;;;;;;;;;24.30;44.80;;;;;;1542845;75;1931;-60
2023/06/12 03:36:25;;;;;;;;;;;24.20;44.70;;;;;;1555237;74;1349;-60
2023/06/12 03:38:26;;;;;;;;;;;24.20;44.70;;;;;;1555067;74;1196;-60
2023/06/12 03:40:27;;;;;;;;;;;24.20;44.70;;;;;;1554566;74;793;-61
2023/06/12 03:42:29;;;;;;;;;;;24.20;44.90;;;;;;1566280;74;828;-61
2023/06/12 03:44:31;;;;;;;;;;;24.20;44.90;;;;;;1556905;74;707;-61
2023/06/12 03:46:33;;;;;;;;;;;24.20;44.80;;;;;;1555973;74;789;-59
2023/06/12 03:48:35;;;;;;;;;;;24.20;44.90;;;;;;1544701;74;1133;-60
2023/06/12 03:50:37;;;;;;;;;;;24.20;44.80;;;;;;1557974;74;1341;-61
2023/06/12 03:52:39;;;;;;;;;;;24.20;44.70;;;;;;1565992;74;657;-62
2023/06/12 03:54:40;;;;;;;;;;;24.20;44.70;;;;;;1561292;74;1935;-61
2023/06/12 03:56:42;;;;;;;;;;;24.20;44.80;;;;;;1563656;74;717;-60
2023/06/12 03:58:44;;;;;;;;;;;24.20;44.80;;;;;;1556874;74;1138;-61
2023/06/12 04:00:47;;;;;;;;;;;24.20;44.90;;;;;;1556124;74;657;-61
2023/06/12 04:02:49;;;;;;;;;;;24.20;44.80;;;;;;1558927;74;769;-61
2023/06/12 04:04:51;;;;;;;;;;;24.20;45.30;;;;;;1563379;74;1489;-60
2023/06/12 04:06:54;;;;;;;;;;;24.20;45.20;;;;;;1563682;74;759;-60
2023/06/12 04:09:01;;;;;;;;;;;24.20;45.00;;;;;;1562980;74;1129;-60
2023/06/12 04:11:01;;;;;;;;;;;24.20;44.90;;;;;;1567502;74;1571;-62
2023/06/12 04:13:03;;;;;;;;;;;24.20;45.00;;;;;;1566267;74;760;-61
2023/06/12 04:15:05;;;;;;;;;;;24.20;44.90;;;;;;1556457;74;1934;-60
2023/06/12 04:17:07;;;;;;;;;;;24.20;45.10;;;;;;1567701;74;736;-60
2023/06/12 04:19:09;;;;;;;;;;;24.20;45.00;;;;;;1559763;74;1668;-60
2023/06/12 04:21:11;;;;;;;;;;;24.20;45.00;;;;;;1556763;74;804;-60
2023/06/12 04:23:16;;;;;;;;;;;24.20;45.00;;;;;;1550617;74;738;-61
2023/06/12 04:25:16;;;;;;;;;;;24.10;45.00;;;;;;1554371;74;1605;-62
2023/06/12 04:27:18;;;;;;;;;;;24.20;45.10;;;;;;1550441;74;1121;-61
2023/06/12 04:29:21;;;;;;;;;;;24.20;45.10;;;;;;1559622;74;742;-61
2023/06/12 04:31:26;;;;;;;;;;;24.20;45.10;;;;;;1559821;74;828;-60
2023/06/12 04:33:32;;;;;;;;;;;24.20;45.40;;;;;;1569903;74;1686;-60
2023/06/12 04:35:34;;;;;;;;;;;24.20;45.20;;;;;;1560037;74;1930;-60
2023/06/12 04:37:37;;;;;;;;;;;24.20;45.50;;;;;;1555304;75;1201;-61
2023/06/12 04:39:39;;;;;;;;;;;24.20;45.80;;;;;;1547394;75;704;-60
2023/06/12 04:41:40;;;;;;;;;;;24.20;45.40;;;;;;1548076;75;730;-61
2023/06/12 04:43:43;;;;;;;;;;;24.20;45.60;;;;;;1551182;75;765;-61
2023/06/12 04:45:46;;;;;;;;;;;24.20;45.50;;;;;;1536603;75;1444;-60
2023/06/12 04:47:48;;;;;;;;;;;24.20;45.60;;;;;;1541409;75;1166;-59
2023/06/12 04:49:57;;;;;;;;;;;24.20;45.60;;;;;;1552603;75;760;-60
2023/06/12 04:51:54;;;;;;;;;;;24.20;45.60;;;;;;1547408;75;1709;-59
2023/06/12 04:53:57;;;;;;;;;;;24.20;45.50;;;;;;1545157;75;745;-60
2023/06/12 04:55:58;;;;;;;;;;;24.20;45.80;;;;;;1540023;75;1916;-59
2023/06/12 04:58:00;;;;;;;;;;;24.20;45.70;;;;;;1540845;75;1123;-59
2023/06/12 05:00:06;;;;;;;;;;;24.30;45.70;;;;;;1544645;75;1524;-59
2023/06/12 05:02:08;;;;;;;;;;;24.30;45.50;;;;;;1550091;75;1641;-59
2023/06/12 05:04:10;;;;;;;;;;;24.20;45.30;;;;;;1552891;75;837;-59
2023/06/12 05:06:12;;;;;;;;;;;24.20;45.20;;;;;;1534451;75;744;-59
2023/06/12 05:08:14;;;;;;;;;;;24.20;45.20;;;;;;1542986;75;1124;-59
2023/06/12 05:10:16;;;;;;;;;;;24.30;45.40;;;;;;1548609;75;741;-60
2023/06/12 05:12:17;;;;;;;;;;;24.30;45.30;;;;;;1545722;75;803;-60
2023/06/12 05:14:19;;;;;;;;;;;24.40;45.50;;;;;;1538918;75;1557;-60
2023/06/12 05:16:22;;;;;;;;;;;24.40;45.30;;;;;;1527958;75;1911;-59
2023/06/12 05:18:24;;;;;;;;;;;24.50;45.40;;;;;;1564952;75;1158;-60
2023/06/12 05:20:26;;;;;;;;;;;24.50;45.50;;;;;;1550196;75;799;-60
2023/06/12 05:22:28;;;;;;;;;;;24.50;45.80;;;;;;1555364;75;644;-60
2023/06/12 05:24:30;;;;;;;;;;;24.50;45.90;;;;;;1558973;75;746;-60
2023/06/12 05:26:32;;;;;;;;;;;24.50;45.70;;;;;;1559369;75;784;-60
2023/06/12 05:28:34;;;;;;;;;;;24.50;45.70;;;;;;1536065;75;1410;-59
2023/06/12 05:30:36;;;;;;;;;;;24.50;46.10;;;;;;1540851;75;771;-60
2023/06/12 05:32:38;;;;;;;;;;;24.60;46.20;;;;;;1562819;75;760;-59
2023/06/12 05:34:40;;;;;;;;;;;24.70;45.90;;;;;;1546834;75;1929;-60
2023/06/12 05:36:42;;;;;;;;;;;24.70;45.60;;;;;;1560117;75;1062;-60
2023/06/12 05:38:46;;;;;;;;;;;24.80;45.20;;;;;;1561489;74;1211;-62
2023/06/12 05:40:48;;;;;;;;;;;24.90;44.70;;;;;;1557432;74;779;-60
2023/06/12 05:42:50;;;;;;;;;;;24.80;44.10;;;;;;1563117;74;1622;-59
2023/06/12 05:44:52;;;;;;;;;;;24.80;44.10;;;;;;1549495;74;738;-60
2023/06/12 05:46:54;;;;;;;;;;;24.90;44.20;;;;;;1560545;74;752;-60
2023/06/12 05:48:57;;;;;;;;;;;24.90;43.70;;;;;;1550276;74;1121;-58
2023/06/12 05:50:59;;;;;;;;;;;24.80;43.30;;;;;;1558076;74;702;-58
2023/06/12 05:53:01;;;;;;;;;;;24.80;43.60;;;;;;1555467;74;776;-58
2023/06/12 05:55:04;;;;;;;;;;;24.80;43.20;;;;;;1567105;74;1912;-59
2023/06/12 05:57:05;;;;;;;;;;;24.80;43.40;;;;;;1560784;74;1437;-60
2023/06/12 05:59:07;;;;;;;;;;;24.80;43.10;;;;;;1560528;74;1028;-59
2023/06/12 06:01:11;;;;;;;;;;;24.80;43.10;;;;;;1559264;74;712;-58
2023/06/12 06:03:13;;;;;;;;;;;24.80;42.90;;;;;;1549871;74;699;-59
2023/06/12 06:05:16;;;;;;;;;;;24.80;43.00;;;;;;1550745;74;722;-59
2023/06/12 06:07:19;;;;;;;;;;;25.00;43.10;;;;;;1553226;74;1114;-58
2023/06/12 06:09:21;;;;;;;;;;;25.00;42.70;;;;;;1551846;74;753;-59
2023/06/12 06:11:23;;;;;;;;;;;24.90;42.60;;;;;;1552492;74;1280;-59
2023/06/12 06:13:24;;;;;;;;;;;24.90;42.60;;;;;;1561646;74;751;-59
2023/06/12 06:15:26;;;;;;;;;;;24.90;42.70;;;;;;1558700;74;1950;-59
2023/06/12 06:17:28;;;;;;;;;;;25.00;42.50;;;;;;1551145;74;1129;-60
2023/06/12 06:19:30;;;;;;;;;;;25.10;42.30;;;;;;1558406;74;760;-60
2023/06/12 06:21:33;;;;;;;;;;;25.00;42.00;;;;;;1554868;74;806;-59
2023/06/12 06:23:35;;;;;;;;;;;24.90;42.20;;;;;;1564377;74;712;-60
2023/06/12 06:25:38;;;;;;;;;;;24.90;42.30;;;;;;1554026;74;1358;-59
2023/06/12 06:27:40;;;;;;;;;;;24.90;42.30;;;;;;1565630;74;1192;-59
2023/06/12 06:29:42;;;;;;;;;;;24.80;42.10;;;;;;1554285;74;685;-59
2023/06/12 06:31:44;;;;;;;;;;;24.80;42.00;;;;;;1559086;74;711;-59
2023/06/12 06:33:46;;;;;;;;;;;24.90;42.10;;;;;;1552402;74;733;-59
2023/06/12 06:35:48;;;;;;;;;;;24.80;42.10;;;;;;1561330;74;1944;-59
2023/06/12 06:37:50;;;;;;;;;;;24.80;42.00;;;;;;1551035;75;1174;-60
2023/06/12 06:39:52;;;;;;;;;;;24.90;42.10;;;;;;1542358;76;1501;-59
2023/06/12 06:41:53;;;;;;;;;;;24.90;42.10;;;;;;1524981;76;773;-59
2023/06/12 06:43:55;;;;;;;;;;;25.00;41.80;;;;;;1531916;76;661;-59
2023/06/12 06:45:57;;;;;;;;;;;25.00;42.00;;;;;;1527512;76;699;-60
2023/06/12 06:47:59;;;;;;;;;;;24.90;41.90;;;;;;1515229;76;1143;-59
2023/06/12 06:50:01;;;;;;;;;;;24.90;41.90;;;;;;1524049;76;737;-60
2023/06/12 06:52:03;;;;;;;;;;;24.90;41.80;;;;;;1540918;76;785;-60
2023/06/12 06:54:05;;;;;;;;;;;24.90;41.80;;;;;;1526079;76;1750;-60
2023/06/12 06:56:07;;;;;;;;;;;25.00;41.00;;;;;;1526956;76;1961;-59
2023/06/12 06:58:09;;;;;;;;;;;25.00;41.30;;;;;;1520491;76;1139;-59
2023/06/12 07:00:11;;;;;;;;;;;25.00;41.10;;;;;;1512670;76;696;-59
2023/06/12 07:02:13;;;;;;;;;;;25.00;41.30;;;;;;1523048;76;699;-59
2023/06/12 07:04:15;;;;;;;;;;;25.00;40.80;;;;;;1523016;76;718;-60
2023/06/12 07:06:17;;;;;;;;;;;25.00;41.10;;;;;;1532914;76;1558;-59
2023/06/12 07:08:19;;;;;;;;;;;25.00;41.30;;;;;;1524561;76;1135;-59
2023/06/12 07:10:21;;;;;;;;;;;25.00;41.00;;;;;;1523437;76;746;-59
2023/06/12 07:12:22;;;;;;;;;;;25.10;40.70;;;;;;1520910;76;716;-60
2023/06/12 07:14:24;;;;;;;;;;;25.20;40.30;;;;;;1521285;76;749;-59
2023/06/12 07:16:27;;;;;;;;;;;25.10;40.70;;;;;;1518681;76;1917;-59
2023/06/12 07:18:29;;;;;;;;;;;25.20;40.80;;;;;;1523697;76;1105;-59
2023/06/12 07:20:30;;;;;;;;;;;25.30;40.70;;;;;;1526393;76;1524;-59
2023/06/12 07:22:33;;;;;;;;;;;25.20;40.00;;;;;;1522513;76;686;-60
2023/06/12 07:24:35;;;;;;;;;;;25.30;40.20;;;;;;1538723;76;815;-60
2023/06/12 07:26:37;;;;;;;;;;;25.20;39.90;;;;;;1528377;76;926;-60
2023/06/12 07:28:39;;;;;;;;;;;25.20;39.90;;;;;;1525064;76;1202;-59
2023/06/12 07:30:40;;;;;;;;;;;25.30;39.70;;;;;;1521401;76;682;-59
2023/06/12 07:32:42;;;;;;;;;;;25.30;40.00;;;;;;1543838;76;798;-60
2023/06/12 07:34:44;;;;;;;;;;;25.30;39.50;;;;;;1529320;76;1503;-60
2023/06/12 07:36:46;;;;;;;;;;;25.20;39.80;;;;;;1528740;76;1962;-59
2023/06/12 07:38:48;;;;;;;;;;;25.30;39.70;;;;;;1538853;74;1144;-59
2023/06/12 07:40:50;;;;;;;;;;;25.20;39.70;;;;;;1572897;74;657;-59
2023/06/12 07:42:52;;;;;;;;;;;25.20;39.70;;;;;;1577273;74;671;-59
2023/06/12 07:44:54;;;;;;;;;;;25.40;39.70;;;;;;1567634;74;755;-59
2023/06/12 07:46:56;;;;;;;;;;;25.40;39.70;;;;;;1577738;74;745;-59
2023/06/12 07:48:58;;;;;;;;;;;25.40;39.20;;;;;;1572514;74;1358;-60
2023/06/12 07:50:59;;;;;;;;;;;25.30;39.00;;;;;;1582777;74;754;-59
2023/06/12 07:53:01;;;;;;;;;;;25.30;39.20;;;;;;1574751;74;665;-60
2023/06/12 07:55:05;;;;;;;;;;;25.40;39.10;;;;;;1575115;74;779;-58
2023/06/12 07:57:07;;;;;;;;;;;25.40;39.30;;;;;;1580377;74;1908;-59
2023/06/12 07:59:10;;;;;;;;;;;25.40;38.60;;;;;;1569244;74;1085;-59
2023/06/12 08:01:13;;;;;;;;;;;25.40;38.70;;;;;;1573587;74;707;-60
2023/06/12 08:03:15;;;;;;;;;;;25.40;38.70;;;;;;1568824;74;1491;-59
2023/06/12 08:05:18;;;;;;;;;;;25.40;38.80;;;;;;1580523;74;786;-60
2023/06/12 08:07:20;;;;;;;;;;;25.40;39.20;;;;;;1562177;74;1157;-59
2023/06/12 08:09:22;;;;;;;;;;;25.40;38.80;;;;;;1563180;74;799;-60
2023/06/12 08:11:24;;;;;;;;;;;25.40;38.40;;;;;;1565928;74;760;-59
2023/06/12 08:13:26;;;;;;;;;;;25.30;38.60;;;;;;1569435;74;749;-58
2023/06/12 08:15:28;;;;;;;;;;;25.30;38.60;;;;;;1570286;74;683;-59
2023/06/12 08:17:30;;;;;;;;;;;25.20;39.10;;;;;;1555906;75;1939;-60
2023/06/12 08:19:34;;;;;;;;;;;25.20;39.30;;;;;;1527999;76;794;-59
2023/06/12 08:21:36;;;;;;;;;;;25.10;39.00;;;;;;1552948;75;737;-59
2023/06/12 08:23:38;;;;;;;;;;;25.20;38.90;;;;;;1551087;75;759;-59
2023/06/12 08:25:41;;;;;;;;;;;25.10;38.30;;;;;;1558663;75;796;-59
2023/06/12 08:27:42;;;;;;;;;;;25.00;38.60;;;;;;1538175;75;1222;-59
2023/06/12 08:29:45;;;;;;;;;;;25.00;38.50;;;;;;1542002;75;705;-58
2023/06/12 08:31:46;;;;;;;;;;;25.00;38.80;;;;;;1529697;75;1345;-59
2023/06/12 08:33:48;;;;;;;;;;;24.90;38.80;;;;;;1548018;75;791;-59
2023/06/12 08:35:50;;;;;;;;;;;25.00;38.60;;;;;;1547037;75;1929;-60
2023/06/12 08:37:52;;;;;;;;;;;25.00;38.50;;;;;;1537649;75;1171;-59
2023/06/12 08:39:54;;;;;;;;;;;25.00;38.40;;;;;;1518598;77;1077;-58
2023/06/12 08:41:57;;;;;;;;;;;24.90;38.40;;;;;;1505846;77;806;-59
2023/06/12 08:44:02;;;;;;;;;;;24.90;38.70;;;;;;1499177;77;1960;-59
2023/06/12 08:46:04;;;;;;;;;;;24.90;38.50;;;;;;1512716;77;1616;-58
2023/06/12 08:49:33;;;;;;;;;;;24.90;39.10;;;;;;1601845;72;667;-59
2023/06/12 08:51:35;;;;;;;;;;;25.00;39.00;;;;;;1567227;73;699;-58
2023/06/12 08:53:37;;;;;;;;;;;25.00;38.60;;;;;;1576436;73;727;-59
2023/06/12 08:55:42;;;;;;;;;;;25.00;38.60;;;;;;1584573;73;796;-59
2023/06/12 08:57:44;;;;;;;;;;;25.00;38.90;;;;;;1585330;73;1230;-60
2023/06/12 08:59:46;;;;;;;;;;;24.90;38.50;;;;;;1554947;75;1397;-59
2023/06/12 09:01:52;;;;;;;;;;;24.80;38.80;;;;;;1546615;75;723;-59
2023/06/12 09:03:53;;;;;;;;;;;24.90;39.20;;;;;;1538202;75;1664;-60
2023/06/12 09:05:57;;;;;;;;;;;24.80;38.10;;;;;;1542775;74;731;-59
2023/06/12 09:08:00;;;;;;;;;;;24.90;38.10;;;;;;1569427;75;1970;-59
2023/06/12 09:10:02;;;;;;;;;;;24.90;38.10;;;;;;1551911;75;685;-59
2023/06/12 09:12:06;;;;;;;;;;;24.80;38.40;;;;;;1545662;75;809;-61
2023/06/12 09:14:08;;;;;;;;;;;24.80;38.20;;;;;;1546219;75;1286;-59
2023/06/12 09:16:13;;;;;;;;;;;24.80;37.90;;;;;;1552395;75;704;-59
2023/06/12 09:18:15;;;;;;;;;;;24.80;37.80;;;;;;1563038;75;1136;-59
2023/06/12 09:20:26;;;;;;;;;;;24.80;38.20;;;;;;1548683;75;918;-60
2023/06/12 09:22:27;;;;;;;;;;;24.90;38.10;;;;;;1550509;74;1702;-59
2023/06/12 09:24:29;;;;;;;;;;;24.90;37.80;;;;;;1534972;76;838;-59
2023/06/12 09:26:31;;;;;;;;;;;25.00;37.80;;;;;;1543955;75;783;-59
2023/06/12 09:28:36;;;;;;;;;;;25.00;38.00;;;;;;1568113;75;1953;-61
2023/06/12 09:30:40;;;;;;;;;;;25.00;37.90;;;;;;1557729;75;1807;-60
2023/06/12 09:32:44;;;;;;;;;;;25.00;37.80;;;;;;1562519;75;932;-60
2023/06/12 09:34:50;;;;;;;;;;;25.00;37.30;;;;;;1569703;74;1262;-60
2023/06/12 09:36:52;;;;;;;;;;;25.10;37.30;;;;;;1548862;75;654;-60
2023/06/12 09:38:54;;;;;;;;;;;25.10;37.10;;;;;;1546844;75;1194;-60
2023/06/12 09:40:57;;;;;;;;;;;25.00;37.30;;;;;;1547285;75;1543;-60
2023/06/12 09:42:59;;;;;;;;;;;25.10;37.30;;;;;;1568681;75;787;-60
2023/06/12 09:45:03;;;;;;;;;;;25.10;36.60;;;;;;1528404;75;1752;-60
2023/06/12 09:47:05;;;;;;;;;;;25.00;36.90;;;;;;1563103;74;1928;-60
2023/06/12 09:49:07;;;;;;;;;;;25.00;36.90;;;;;;1555540;75;1952;-59
2023/06/12 09:51:10;;;;;;;;;;;25.00;37.00;;;;;;1545597;75;754;-60
2023/06/12 09:53:16;;;;;;;;;;;25.00;36.50;;;;;;1548113;75;705;-59
2023/06/12 09:55:17;;;;;;;;;;;25.00;36.70;;;;;;1537293;75;1471;-60
2023/06/12 09:57:19;;;;;;;;;;;25.00;36.80;;;;;;1549643;75;1197;-60
2023/06/12 09:59:22;;;;;;;;;;;25.00;36.80;;;;;;1538488;75;714;-60
2023/06/12 10:01:26;;;;;;;;;;;25.00;36.40;;;;;;1532492;75;715;-60
2023/06/12 10:03:28;;;;;;;;;;;25.00;36.20;;;;;;1540030;75;1743;-60
2023/06/12 10:05:38;;;;;;;;;;;24.90;36.80;;;;;;1554084;75;816;-60
2023/06/12 10:07:41;;;;;;;;;;;25.00;36.80;;;;;;1543510;75;1126;-60
2023/06/12 10:09:43;;;;;;;;;;;24.90;36.90;;;;;;1549593;75;1926;-59
2023/06/12 10:11:46;;;;;;;;;;;24.80;37.30;;;;;;1542758;75;789;-60
2023/06/12 10:13:48;;;;;;;;;;;24.80;36.50;;;;;;1544301;75;680;-60
2023/06/12 10:15:50;;;;;;;;;;;24.80;37.10;;;;;;1542416;75;786;-60
2023/06/12 10:17:52;;;;;;;;;;;24.90;36.90;;;;;;1553753;75;1233;-61
2023/06/12 10:19:54;;;;;;;;;;;24.80;36.80;;;;;;1549073;75;768;-60
2023/06/12 10:21:56;;;;;;;;;;;24.80;37.10;;;;;;1547885;75;829;-59
2023/06/12 10:23:58;;;;;;;;;;;24.70;36.90;;;;;;1540213;75;1564;-60
2023/06/12 10:26:00;;;;;;;;;;;24.80;37.30;;;;;;1546349;75;754;-59
2023/06/12 10:28:02;;;;;;;;;;;24.80;37.30;;;;;;1549815;75;1155;-60
2023/06/12 10:30:04;;;;;;;;;;;24.70;37.00;;;;;;1543703;75;1933;-59
2023/06/12 10:32:07;;;;;;;;;;;24.70;37.50;;;;;;1551974;75;788;-60
2023/06/12 10:34:12;;;;;;;;;;;24.80;37.30;;;;;;1537953;75;732;-60
2023/06/12 10:36:14;;;;;;;;;;;24.80;37.10;;;;;;1548372;75;884;-60
2023/06/12 10:38:16;;;;;;;;;;;24.70;37.20;;;;;;1553072;75;1598;-60
2023/06/12 10:40:21;;;;;;;;;;;24.70;37.30;;;;;;1542109;75;842;-60
2023/06/12 10:42:23;;;;;;;;;;;24.70;37.10;;;;;;1559122;75;730;-60
2023/06/12 10:44:41;;;;;;;;;;;24.70;37.50;;;;;;1514679;77;919;-60
2023/06/12 10:46:44;;;;;;;;;;;24.70;37.30;;;;;;1536914;75;861;-61
2023/06/12 10:48:48;;;;;;;;;;;24.80;36.90;;;;;;1543548;75;1931;-60
2023/06/12 10:50:51;;;;;;;;;;;24.70;37.00;;;;;;1516467;76;622;-60
2023/06/12 10:52:54;;;;;;;;;;;24.60;37.10;;;;;;1502211;78;1684;-60
2023/06/12 10:55:14;;;;;;;;;;;24.70;36.80;;;;;;1523359;76;810;-61
2023/06/12 10:57:16;;;;;;;;;;;24.70;37.40;;;;;;1530295;76;1239;-60
2023/06/12 10:59:18;;;;;;;;;;;24.70;36.80;;;;;;1529871;76;722;-60
2023/06/12 11:01:20;;;;;;;;;;;24.70;36.70;;;;;;1536331;76;777;-61
2023/06/12 11:03:22;;;;;;;;;;;24.60;36.30;;;;;;1539195;76;748;-60
2023/06/12 11:05:24;;;;;;;;;;;24.60;36.40;;;;;;1531361;76;1438;-60
2023/06/12 11:07:27;;;;;;;;;;;24.50;36.10;;;;;;1524333;76;1099;-61
2023/06/12 11:09:31;;;;;;;;;;;24.50;36.50;;;;;;1522450;76;1917;-60
2023/06/12 11:11:33;;;;;;;;;;;24.50;36.70;;;;;;1515112;76;2170;-61
2023/06/12 11:13:36;;;;;;;;;;;24.50;36.70;;;;;;1523400;76;851;-61
2023/06/12 11:15:43;;;;;;;;;;;24.50;36.30;;;;;;1516235;76;788;-61
2023/06/12 11:17:45;;;;;;;;;;;24.50;36.60;;;;;;1514027;76;1797;-61
2023/06/12 11:19:46;;;;;;;;;;;24.60;36.50;;;;;;1532128;76;1362;-61
2023/06/12 11:21:49;;;;;;;;;;;24.60;36.70;;;;;;1543602;76;745;-61
2023/06/12 11:23:51;;;;;;;;;;;24.50;35.60;;;;;;1532072;76;702;-61
2023/06/12 11:25:53;;;;;;;;;;;24.60;35.70;;;;;;1516072;76;711;-61
2023/06/12 11:27:55;;;;;;;;;;;24.60;35.40;;;;;;1520948;76;1171;-61
2023/06/12 11:29:57;;;;;;;;;;;24.50;35.50;;;;;;1517633;76;1928;-60
2023/06/12 11:32:01;;;;;;;;;;;24.50;35.30;;;;;;1519825;76;778;-61
2023/06/12 11:34:03;;;;;;;;;;;24.50;34.80;;;;;;1536127;76;1495;-61
2023/06/12 11:36:04;;;;;;;;;;;24.40;34.80;;;;;;1521694;76;776;-61
2023/06/12 11:38:06;;;;;;;;;;;24.40;34.50;;;;;;1526393;76;1177;-61
2023/06/12 11:40:09;;;;;;;;;;;24.30;35.00;;;;;;1530220;76;788;-60
2023/06/12 11:42:11;;;;;;;;;;;24.40;35.30;;;;;;1531233;76;629;-61
2023/06/12 11:44:15;;;;;;;;;;;24.40;35.00;;;;;;1534858;76;808;-62
2023/06/12 11:46:17;;;;;;;;;;;24.40;35.10;;;;;;1526769;76;727;-60
2023/06/12 11:48:19;;;;;;;;;;;24.30;35.00;;;;;;1535397;76;1560;-61
2023/06/12 11:50:21;;;;;;;;;;;24.50;34.40;;;;;;1544854;75;1945;-60
2023/06/12 11:52:22;;;;;;;;;;;24.40;33.90;;;;;;1555598;75;667;-61
2023/06/12 11:54:24;;;;;;;;;;;24.30;34.50;;;;;;1549635;74;833;-60
2023/06/12 11:56:26;;;;;;;;;;;24.30;34.40;;;;;;1556923;75;739;-62
2023/06/12 11:58:32;;;;;;;;;;;24.40;34.50;;;;;;1545476;76;1193;-61
2023/06/12 12:00:34;;;;;;;;;;;24.30;35.00;;;;;;1548453;75;671;-61
2023/06/12 12:02:39;;;;;;;;;;;24.30;34.50;;;;;;1552676;76;1515;-61
2023/06/12 12:04:41;;;;;;;;;;;24.40;34.20;;;;;;1558195;75;768;-61
2023/06/12 12:06:49;;;;;;;;;;;24.30;34.00;;;;;;1566127;75;776;-61
2023/06/12 12:08:55;;;;;;;;;;;24.30;34.80;;;;;;1550318;74;1926;-61
2023/06/12 12:10:57;;;;;;;;;;;24.40;34.50;;;;;;1549221;75;720;-60
2023/06/12 12:13:00;;;;;;;;;;;24.40;34.00;;;;;;1542496;76;675;-60